sensor_id;sensor_type;location;lat;lon;timestamp;temperature;humidity
48515;DHT22;34309;47.260;2.796;2023-09-12T00:01:51;27.00;30.00
48515;DHT22;34309;47.260;2.796;2023-09-12T00:04:25;27.00;30.00
48515;DHT22;34309;47.260;2.796;2023-09-12T00:06:58;26.90;30.10
48515;DHT22;34309;47.260;2.796;2023-09-12T00:09:32;26.90;30.00
48515;DHT22;34309;47.260;2.796;2023-09-12T00:12:08;26.90;30.10
48515;DHT22;34309;47.260;2.796;2023-09-12T00:14:42;26.90;30.20
48515;DHT22;34309;47.260;2.796;2023-09-12T00:17:16;26.80;30.10
48515;DHT22;34309;47.260;2.796;2023-09-12T00:19:50;26.90;30.00
48515;DHT22;34309;47.260;2.796;2023-09-12T00:22:24;26.80;29.70
48515;DHT22;34309;47.260;2.796;2023-09-12T00:24:58;26.80;29.80
48515;DHT22;34309;47.260;2.796;2023-09-12T00:27:34;26.80;29.60
48515;DHT22;34309;47.260;2.796;2023-09-12T00:30:08;26.80;29.90
48515;DHT22;34309;47.260;2.796;2023-09-12T00:32:42;26.80;29.60
48515;DHT22;34309;47.260;2.796;2023-09-12T00:35:16;26.70;29.60
48515;DHT22;34309;47.260;2.796;2023-09-12T00:37:44;26.70;29.40
48515;DHT22;34309;47.260;2.796;2023-09-12T00:40:18;26.70;29.80
48515;DHT22;34309;47.260;2.796;2023-09-12T00:42:53;26.70;30.00
48515;DHT22;34309;47.260;2.796;2023-09-12T00:45:27;26.70;30.00
48515;DHT22;34309;47.260;2.796;2023-09-12T00:48:01;26.70;30.00
48515;DHT22;34309;47.260;2.796;2023-09-12T00:50:37;26.70;30.10
48515;DHT22;34309;47.260;2.796;2023-09-12T00:53:11;26.60;30.10
48515;DHT22;34309;47.260;2.796;2023-09-12T00:55:48;26.60;30.40
48515;DHT22;34309;47.260;2.796;2023-09-12T00:58:25;26.60;30.40
48515;DHT22;34309;47.260;2.796;2023-09-12T01:01:01;26.60;30.60
48515;DHT22;34309;47.260;2.796;2023-09-12T01:03:36;26.60;30.60
48515;DHT22;34309;47.260;2.796;2023-09-12T01:06:11;26.60;30.50
48515;DHT22;34309;47.260;2.796;2023-09-12T01:08:46;26.60;30.60
48515;DHT22;34309;47.260;2.796;2023-09-12T01:11:20;26.50;30.50
48515;DHT22;34309;47.260;2.796;2023-09-12T01:13:56;26.50;30.50
48515;DHT22;34309;47.260;2.796;2023-09-12T01:16:30;26.50;30.70
48515;DHT22;34309;47.260;2.796;2023-09-12T01:19:04;26.50;30.90
48515;DHT22;34309;47.260;2.796;2023-09-12T01:21:59;26.50;31.10
48515;DHT22;34309;47.260;2.796;2023-09-12T01:27:47;26.50;30.90
48515;DHT22;34309;47.260;2.796;2023-09-12T01:30:23;26.50;31.00
48515;DHT22;34309;47.260;2.796;2023-09-12T01:32:59;26.40;30.90
48515;DHT22;34309;47.260;2.796;2023-09-12T01:35:33;26.40;30.90
48515;DHT22;34309;47.260;2.796;2023-09-12T01:38:07;26.40;30.60
48515;DHT22;34309;47.260;2.796;2023-09-12T01:40:49;26.40;30.70
48515;DHT22;34309;47.260;2.796;2023-09-12T01:43:25;26.40;30.60
48515;DHT22;34309;47.260;2.796;2023-09-12T01:46:01;26.40;30.50
48515;DHT22;34309;47.260;2.796;2023-09-12T01:48:36;26.50;31.30
48515;DHT22;34309;47.260;2.796;2023-09-12T01:51:10;26.40;30.60
48515;DHT22;34309;47.260;2.796;2023-09-12T01:53:45;26.40;30.40
48515;DHT22;34309;47.260;2.796;2023-09-12T01:56:19;26.40;30.30
48515;DHT22;34309;47.260;2.796;2023-09-12T01:58:55;26.40;30.10
48515;DHT22;34309;47.260;2.796;2023-09-12T02:01:29;26.40;30.00
48515;DHT22;34309;47.260;2.796;2023-09-12T02:04:02;26.30;30.00
48515;DHT22;34309;47.260;2.796;2023-09-12T02:06:40;26.30;30.20
48515;DHT22;34309;47.260;2.796;2023-09-12T02:09:14;26.30;30.00
48515;DHT22;34309;47.260;2.796;2023-09-12T02:11:50;26.30;30.30
48515;DHT22;34309;47.260;2.796;2023-09-12T02:14:25;26.30;30.40
48515;DHT22;34309;47.260;2.796;2023-09-12T02:16:59;26.30;30.50
48515;DHT22;34309;47.260;2.796;2023-09-12T02:19:39;26.30;30.60
48515;DHT22;34309;47.260;2.796;2023-09-12T02:22:13;26.30;30.70
48515;DHT22;34309;47.260;2.796;2023-09-12T02:24:47;26.30;30.80
48515;DHT22;34309;47.260;2.796;2023-09-12T02:27:21;26.30;30.70
48515;DHT22;34309;47.260;2.796;2023-09-12T02:29:56;26.30;30.70
48515;DHT22;34309;47.260;2.796;2023-09-12T02:32:30;26.30;30.70
48515;DHT22;34309;47.260;2.796;2023-09-12T02:35:04;26.30;31.00
48515;DHT22;34309;47.260;2.796;2023-09-12T02:37:38;26.20;30.90
48515;DHT22;34309;47.260;2.796;2023-09-12T02:40:12;26.20;31.00
48515;DHT22;34309;47.260;2.796;2023-09-12T02:42:46;26.20;31.10
48515;DHT22;34309;47.260;2.796;2023-09-12T02:45:22;26.30;31.90
48515;DHT22;34309;47.260;2.796;2023-09-12T02:47:56;26.20;31.10
48515;DHT22;34309;47.260;2.796;2023-09-12T02:50:30;26.20;31.20
48515;DHT22;34309;47.260;2.796;2023-09-12T02:53:03;26.20;31.20
48515;DHT22;34309;47.260;2.796;2023-09-12T02:55:39;26.20;31.30
48515;DHT22;34309;47.260;2.796;2023-09-12T02:58:14;26.20;31.40
48515;DHT22;34309;47.260;2.796;2023-09-12T03:00:49;26.20;31.50
48515;DHT22;34309;47.260;2.796;2023-09-12T03:03:26;26.20;31.50
48515;DHT22;34309;47.260;2.796;2023-09-12T03:05:59;26.20;31.70
48515;DHT22;34309;47.260;2.796;2023-09-12T03:08:33;26.10;31.70
48515;DHT22;34309;47.260;2.796;2023-09-12T03:11:02;26.20;31.90
48515;DHT22;34309;47.260;2.796;2023-09-12T03:13:37;26.20;31.80
48515;DHT22;34309;47.260;2.796;2023-09-12T03:16:13;26.10;32.10
48515;DHT22;34309;47.260;2.796;2023-09-12T03:18:47;26.10;32.30
48515;DHT22;34309;47.260;2.796;2023-09-12T03:21:22;26.10;32.40
48515;DHT22;34309;47.260;2.796;2023-09-12T03:23:56;26.10;33.00
48515;DHT22;34309;47.260;2.796;2023-09-12T03:26:30;26.10;32.80
48515;DHT22;34309;47.260;2.796;2023-09-12T03:29:03;26.10;33.50
48515;DHT22;34309;47.260;2.796;2023-09-12T03:31:39;26.10;32.80
48515;DHT22;34309;47.260;2.796;2023-09-12T03:34:13;26.10;33.00
48515;DHT22;34309;47.260;2.796;2023-09-12T03:36:47;26.00;32.80
48515;DHT22;34309;47.260;2.796;2023-09-12T03:39:21;26.00;33.10
48515;DHT22;34309;47.260;2.796;2023-09-12T03:41:55;26.00;33.20
48515;DHT22;34309;47.260;2.796;2023-09-12T03:44:29;26.00;33.30
48515;DHT22;34309;47.260;2.796;2023-09-12T03:47:04;25.90;33.40
48515;DHT22;34309;47.260;2.796;2023-09-12T03:49:38;25.90;33.60
48515;DHT22;34309;47.260;2.796;2023-09-12T03:52:14;25.90;33.70
48515;DHT22;34309;47.260;2.796;2023-09-12T03:54:42;25.90;34.00
48515;DHT22;34309;47.260;2.796;2023-09-12T03:57:16;25.90;34.30
48515;DHT22;34309;47.260;2.796;2023-09-12T03:59:50;25.90;34.50
48515;DHT22;34309;47.260;2.796;2023-09-12T04:02:26;25.90;34.60
48515;DHT22;34309;47.260;2.796;2023-09-12T04:04:59;25.90;34.60
48515;DHT22;34309;47.260;2.796;2023-09-12T04:07:33;25.90;34.40
48515;DHT22;34309;47.260;2.796;2023-09-12T04:10:08;25.90;34.30
48515;DHT22;34309;47.260;2.796;2023-09-12T04:12:42;26.00;34.40
48515;DHT22;34309;47.260;2.796;2023-09-12T04:15:16;26.00;34.80
48515;DHT22;34309;47.260;2.796;2023-09-12T04:17:54;26.00;34.50
48515;DHT22;34309;47.260;2.796;2023-09-12T04:20:28;26.00;34.20
48515;DHT22;34309;47.260;2.796;2023-09-12T04:23:02;25.90;34.20
48515;DHT22;34309;47.260;2.796;2023-09-12T04:25:36;25.90;34.10
48515;DHT22;34309;47.260;2.796;2023-09-12T04:28:10;25.90;34.00
48515;DHT22;34309;47.260;2.796;2023-09-12T04:30:44;26.00;34.20
48515;DHT22;34309;47.260;2.796;2023-09-12T04:33:19;25.90;34.10
48515;DHT22;34309;47.260;2.796;2023-09-12T04:35:53;26.00;34.10
48515;DHT22;34309;47.260;2.796;2023-09-12T04:38:27;25.90;34.30
48515;DHT22;34309;47.260;2.796;2023-09-12T04:41:03;25.90;34.20
48515;DHT22;34309;47.260;2.796;2023-09-12T04:43:37;25.90;34.70
48515;DHT22;34309;47.260;2.796;2023-09-12T04:46:11;25.90;34.90
48515;DHT22;34309;47.260;2.796;2023-09-12T04:48:47;26.00;34.90
48515;DHT22;34309;47.260;2.796;2023-09-12T04:51:20;25.90;35.00
48515;DHT22;34309;47.260;2.796;2023-09-12T04:53:54;25.90;35.10
48515;DHT22;34309;47.260;2.796;2023-09-12T04:56:28;26.00;35.30
48515;DHT22;34309;47.260;2.796;2023-09-12T04:59:03;26.00;35.60
48515;DHT22;34309;47.260;2.796;2023-09-12T05:01:39;26.00;35.70
48515;DHT22;34309;47.260;2.796;2023-09-12T05:04:14;25.90;35.20
48515;DHT22;34309;47.260;2.796;2023-09-12T05:06:51;25.90;35.50
48515;DHT22;34309;47.260;2.796;2023-09-12T05:09:25;25.90;35.50
48515;DHT22;34309;47.260;2.796;2023-09-12T05:11:59;26.00;36.30
48515;DHT22;34309;47.260;2.796;2023-09-12T05:14:33;25.90;35.30
48515;DHT22;34309;47.260;2.796;2023-09-12T05:17:07;26.00;35.20
48515;DHT22;34309;47.260;2.796;2023-09-12T05:19:42;26.00;35.20
48515;DHT22;34309;47.260;2.796;2023-09-12T05:22:16;25.90;35.20
48515;DHT22;34309;47.260;2.796;2023-09-12T05:24:50;25.90;35.10
48515;DHT22;34309;47.260;2.796;2023-09-12T05:27:24;25.90;35.10
48515;DHT22;34309;47.260;2.796;2023-09-12T05:29:58;25.90;35.20
48515;DHT22;34309;47.260;2.796;2023-09-12T05:32:32;25.90;35.30
48515;DHT22;34309;47.260;2.796;2023-09-12T05:35:04;25.90;35.30
48515;DHT22;34309;47.260;2.796;2023-09-12T05:37:38;25.80;35.40
48515;DHT22;34309;47.260;2.796;2023-09-12T05:40:13;25.80;35.40
48515;DHT22;34309;47.260;2.796;2023-09-12T05:42:47;25.80;35.50
48515;DHT22;34309;47.260;2.796;2023-09-12T05:45:21;25.80;35.70
48515;DHT22;34309;47.260;2.796;2023-09-12T05:47:55;25.80;35.60
48515;DHT22;34309;47.260;2.796;2023-09-12T05:50:31;25.80;35.60
48515;DHT22;34309;47.260;2.796;2023-09-12T05:53:04;25.80;35.70
48515;DHT22;34309;47.260;2.796;2023-09-12T05:55:38;25.80;35.50
48515;DHT22;34309;47.260;2.796;2023-09-12T05:58:11;25.80;35.60
48515;DHT22;34309;47.260;2.796;2023-09-12T06:00:45;25.80;35.80
48515;DHT22;34309;47.260;2.796;2023-09-12T06:03:21;25.80;36.00
48515;DHT22;34309;47.260;2.796;2023-09-12T06:05:56;25.80;35.90
48515;DHT22;34309;47.260;2.796;2023-09-12T06:08:30;25.70;35.70
48515;DHT22;34309;47.260;2.796;2023-09-12T06:11:04;25.70;35.90
48515;DHT22;34309;47.260;2.796;2023-09-12T06:13:37;25.70;36.20
48515;DHT22;34309;47.260;2.796;2023-09-12T06:16:11;25.70;36.30
48515;DHT22;34309;47.260;2.796;2023-09-12T06:18:45;25.60;36.50
48515;DHT22;34309;47.260;2.796;2023-09-12T06:21:22;25.60;36.40
48515;DHT22;34309;47.260;2.796;2023-09-12T06:24:09;25.60;36.30
48515;DHT22;34309;47.260;2.796;2023-09-12T06:26:43;25.50;36.20
48515;DHT22;34309;47.260;2.796;2023-09-12T06:29:17;25.50;36.40
48515;DHT22;34309;47.260;2.796;2023-09-12T06:31:51;25.50;36.50
48515;DHT22;34309;47.260;2.796;2023-09-12T06:34:26;25.50;36.60
48515;DHT22;34309;47.260;2.796;2023-09-12T06:37:02;25.50;36.50
48515;DHT22;34309;47.260;2.796;2023-09-12T06:39:36;25.50;36.70
48515;DHT22;34309;47.260;2.796;2023-09-12T06:42:11;25.50;37.10
48515;DHT22;34309;47.260;2.796;2023-09-12T06:44:45;25.50;37.40
48515;DHT22;34309;47.260;2.796;2023-09-12T06:47:19;25.50;37.70
48515;DHT22;34309;47.260;2.796;2023-09-12T06:49:54;25.50;38.20
48515;DHT22;34309;47.260;2.796;2023-09-12T06:52:29;25.50;38.40
48515;DHT22;34309;47.260;2.796;2023-09-12T06:55:04;25.50;38.50
48515;DHT22;34309;47.260;2.796;2023-09-12T06:57:39;25.50;37.90
48515;DHT22;34309;47.260;2.796;2023-09-12T07:00:14;25.40;37.40
48515;DHT22;34309;47.260;2.796;2023-09-12T07:02:48;25.40;37.00
48515;DHT22;34309;47.260;2.796;2023-09-12T07:05:22;25.40;36.90
48515;DHT22;34309;47.260;2.796;2023-09-12T07:07:58;25.40;37.10
48515;DHT22;34309;47.260;2.796;2023-09-12T07:10:33;25.30;36.90
48515;DHT22;34309;47.260;2.796;2023-09-12T07:13:08;25.30;36.80
48515;DHT22;34309;47.260;2.796;2023-09-12T07:15:42;25.30;36.50
48515;DHT22;34309;47.260;2.796;2023-09-12T07:18:18;25.40;36.50
48515;DHT22;34309;47.260;2.796;2023-09-12T07:20:57;25.30;36.50
48515;DHT22;34309;47.260;2.796;2023-09-12T07:23:32;25.40;36.40
48515;DHT22;34309;47.260;2.796;2023-09-12T07:26:12;25.40;37.10
48515;DHT22;34309;47.260;2.796;2023-09-12T07:28:47;25.30;36.30
48515;DHT22;34309;47.260;2.796;2023-09-12T07:31:21;25.40;36.40
48515;DHT22;34309;47.260;2.796;2023-09-12T07:33:55;25.30;36.50
48515;DHT22;34309;47.260;2.796;2023-09-12T07:36:29;25.40;36.60
48515;DHT22;34309;47.260;2.796;2023-09-12T07:39:05;25.30;36.60
48515;DHT22;34309;47.260;2.796;2023-09-12T07:41:39;25.30;36.70
48515;DHT22;34309;47.260;2.796;2023-09-12T07:44:13;25.30;37.60
48515;DHT22;34309;47.260;2.796;2023-09-12T07:46:47;25.40;37.00
48515;DHT22;34309;47.260;2.796;2023-09-12T07:49:21;25.30;37.00
48515;DHT22;34309;47.260;2.796;2023-09-12T07:51:57;25.40;37.20
48515;DHT22;34309;47.260;2.796;2023-09-12T07:54:32;25.30;37.30
48515;DHT22;34309;47.260;2.796;2023-09-12T07:57:06;25.30;37.60
48515;DHT22;34309;47.260;2.796;2023-09-12T07:59:40;25.30;37.80
48515;DHT22;34309;47.260;2.796;2023-09-12T08:02:14;25.40;38.20
48515;DHT22;34309;47.260;2.796;2023-09-12T08:04:49;25.40;38.30
48515;DHT22;34309;47.260;2.796;2023-09-12T08:07:24;25.40;38.60
48515;DHT22;34309;47.260;2.796;2023-09-12T08:09:59;25.40;39.10
48515;DHT22;34309;47.260;2.796;2023-09-12T08:12:32;25.40;39.50
48515;DHT22;34309;47.260;2.796;2023-09-12T08:15:08;25.40;39.60
48515;DHT22;34309;47.260;2.796;2023-09-12T08:17:42;25.40;39.80
48515;DHT22;34309;47.260;2.796;2023-09-12T08:20:16;25.40;39.80
48515;DHT22;34309;47.260;2.796;2023-09-12T08:22:50;25.40;39.90
48515;DHT22;34309;47.260;2.796;2023-09-12T08:25:25;25.40;39.90
48515;DHT22;34309;47.260;2.796;2023-09-12T08:27:59;25.40;40.00
48515;DHT22;34309;47.260;2.796;2023-09-12T08:30:33;25.30;39.90
48515;DHT22;34309;47.260;2.796;2023-09-12T08:33:07;25.40;39.90
48515;DHT22;34309;47.260;2.796;2023-09-12T08:35:41;25.30;39.50
48515;DHT22;34309;47.260;2.796;2023-09-12T08:38:16;25.30;39.50
48515;DHT22;34309;47.260;2.796;2023-09-12T08:40:52;25.30;39.20
48515;DHT22;34309;47.260;2.796;2023-09-12T08:43:26;25.30;39.40
48515;DHT22;34309;47.260;2.796;2023-09-12T08:45:59;25.30;39.20
48515;DHT22;34309;47.260;2.796;2023-09-12T08:48:29;25.30;39.00
48515;DHT22;34309;47.260;2.796;2023-09-12T08:51:04;25.30;39.20
48515;DHT22;34309;47.260;2.796;2023-09-12T08:53:39;25.30;39.40
48515;DHT22;34309;47.260;2.796;2023-09-12T08:56:15;25.30;39.40
48515;DHT22;34309;47.260;2.796;2023-09-12T08:58:49;25.30;40.00
48515;DHT22;34309;47.260;2.796;2023-09-12T09:01:24;25.30;39.90
48515;DHT22;34309;47.260;2.796;2023-09-12T09:04:02;25.30;39.60
48515;DHT22;34309;47.260;2.796;2023-09-12T09:06:37;25.20;39.20
48515;DHT22;34309;47.260;2.796;2023-09-12T09:09:12;25.20;39.70
48515;DHT22;34309;47.260;2.796;2023-09-12T09:11:48;25.20;40.50
48515;DHT22;34309;47.260;2.796;2023-09-12T09:14:22;25.30;39.80
48515;DHT22;34309;47.260;2.796;2023-09-12T09:16:51;25.30;40.00
48515;DHT22;34309;47.260;2.796;2023-09-12T09:19:40;25.30;40.00
48515;DHT22;34309;47.260;2.796;2023-09-12T09:22:15;25.30;39.90
48515;DHT22;34309;47.260;2.796;2023-09-12T09:24:49;25.30;39.90
48515;DHT22;34309;47.260;2.796;2023-09-12T09:27:34;25.30;39.70
48515;DHT22;34309;47.260;2.796;2023-09-12T09:30:08;25.40;39.40
48515;DHT22;34309;47.260;2.796;2023-09-12T09:32:56;25.30;39.70
48515;DHT22;34309;47.260;2.796;2023-09-12T09:35:33;25.40;39.80
48515;DHT22;34309;47.260;2.796;2023-09-12T09:38:08;25.40;39.90
48515;DHT22;34309;47.260;2.796;2023-09-12T09:40:45;25.40;40.30
48515;DHT22;34309;47.260;2.796;2023-09-12T09:43:21;25.50;40.30
48515;DHT22;34309;47.260;2.796;2023-09-12T09:45:57;25.50;40.30
48515;DHT22;34309;47.260;2.796;2023-09-12T09:48:31;25.50;40.50
48515;DHT22;34309;47.260;2.796;2023-09-12T09:51:05;25.50;40.60
48515;DHT22;34309;47.260;2.796;2023-09-12T09:53:40;25.50;41.00
48515;DHT22;34309;47.260;2.796;2023-09-12T09:56:15;25.50;41.20
48515;DHT22;34309;47.260;2.796;2023-09-12T09:58:52;25.50;41.10
48515;DHT22;34309;47.260;2.796;2023-09-12T10:01:28;25.50;40.90
48515;DHT22;34309;47.260;2.796;2023-09-12T10:04:02;25.50;40.90
48515;DHT22;34309;47.260;2.796;2023-09-12T10:06:37;25.60;40.90
48515;DHT22;34309;47.260;2.796;2023-09-12T10:09:13;25.60;41.00
48515;DHT22;34309;47.260;2.796;2023-09-12T10:11:48;25.60;40.90
48515;DHT22;34309;47.260;2.796;2023-09-12T10:14:28;25.70;40.70
48515;DHT22;34309;47.260;2.796;2023-09-12T10:17:03;25.70;40.70
48515;DHT22;34309;47.260;2.796;2023-09-12T10:19:40;25.70;40.40
48515;DHT22;34309;47.260;2.796;2023-09-12T10:22:20;25.80;40.40
48515;DHT22;34309;47.260;2.796;2023-09-12T10:24:56;25.80;40.20
48515;DHT22;34309;47.260;2.796;2023-09-12T10:27:31;25.80;40.10
48515;DHT22;34309;47.260;2.796;2023-09-12T10:30:09;25.90;40.30
48515;DHT22;34309;47.260;2.796;2023-09-12T10:32:45;25.90;40.20
48515;DHT22;34309;47.260;2.796;2023-09-12T10:35:20;26.00;40.30
48515;DHT22;34309;47.260;2.796;2023-09-12T10:37:54;26.00;40.30
48515;DHT22;34309;47.260;2.796;2023-09-12T10:40:31;26.10;40.50
48515;DHT22;34309;47.260;2.796;2023-09-12T10:43:05;26.10;40.20
48515;DHT22;34309;47.260;2.796;2023-09-12T10:45:43;26.20;40.10
48515;DHT22;34309;47.260;2.796;2023-09-12T10:48:17;26.20;41.00
48515;DHT22;34309;47.260;2.796;2023-09-12T10:50:51;26.20;40.20
48515;DHT22;34309;47.260;2.796;2023-09-12T10:53:27;26.20;40.00
48515;DHT22;34309;47.260;2.796;2023-09-12T10:56:13;26.30;40.00
48515;DHT22;34309;47.260;2.796;2023-09-12T10:59:09;26.30;40.10
48515;DHT22;34309;47.260;2.796;2023-09-12T11:01:46;26.30;40.10
48515;DHT22;34309;47.260;2.796;2023-09-12T11:04:31;26.30;40.50
48515;DHT22;34309;47.260;2.796;2023-09-12T11:07:45;26.30;40.30
48515;DHT22;34309;47.260;2.796;2023-09-12T11:10:20;26.40;40.30
48515;DHT22;34309;47.260;2.796;2023-09-12T11:12:56;26.40;40.30
48515;DHT22;34309;47.260;2.796;2023-09-12T11:15:30;26.40;40.30
48515;DHT22;34309;47.260;2.796;2023-09-12T11:18:08;26.40;40.30
48515;DHT22;34309;47.260;2.796;2023-09-12T11:20:52;26.50;40.20
48515;DHT22;34309;47.260;2.796;2023-09-12T11:23:26;26.50;40.00
48515;DHT22;34309;47.260;2.796;2023-09-12T11:26:04;26.50;40.00
48515;DHT22;34309;47.260;2.796;2023-09-12T11:28:39;26.50;40.00
48515;DHT22;34309;47.260;2.796;2023-09-12T11:31:24;26.50;40.00
48515;DHT22;34309;47.260;2.796;2023-09-12T11:34:02;26.60;40.00
48515;DHT22;34309;47.260;2.796;2023-09-12T11:36:39;26.60;39.80
48515;DHT22;34309;47.260;2.796;2023-09-12T11:39:23;26.60;39.70
48515;DHT22;34309;47.260;2.796;2023-09-12T11:41:59;26.60;39.50
48515;DHT22;34309;47.260;2.796;2023-09-12T11:44:33;26.60;39.60
48515;DHT22;34309;47.260;2.796;2023-09-12T11:47:09;26.60;39.30
48515;DHT22;34309;47.260;2.796;2023-09-12T11:49:45;26.60;39.00
48515;DHT22;34309;47.260;2.796;2023-09-12T11:52:19;26.70;38.90
48515;DHT22;34309;47.260;2.796;2023-09-12T11:54:54;26.70;38.70
48515;DHT22;34309;47.260;2.796;2023-09-12T11:57:28;26.70;38.30
48515;DHT22;34309;47.260;2.796;2023-09-12T12:00:03;26.70;38.00
48515;DHT22;34309;47.260;2.796;2023-09-12T12:02:43;26.70;37.70
48515;DHT22;34309;47.260;2.796;2023-09-12T12:05:19;26.80;37.60
48515;DHT22;34309;47.260;2.796;2023-09-12T12:07:54;26.80;37.40
48515;DHT22;34309;47.260;2.796;2023-09-12T12:10:28;26.80;37.10
48515;DHT22;34309;47.260;2.796;2023-09-12T12:13:03;26.80;36.80
48515;DHT22;34309;47.260;2.796;2023-09-12T12:15:37;26.80;36.50
48515;DHT22;34309;47.260;2.796;2023-09-12T12:18:11;26.80;36.40
48515;DHT22;34309;47.260;2.796;2023-09-12T12:20:46;26.80;36.20
48515;DHT22;34309;47.260;2.796;2023-09-12T12:23:23;26.90;35.90
48515;DHT22;34309;47.260;2.796;2023-09-12T12:25:57;26.90;35.80
48515;DHT22;34309;47.260;2.796;2023-09-12T12:28:30;26.90;35.70
48515;DHT22;34309;47.260;2.796;2023-09-12T12:31:05;26.90;35.60
48515;DHT22;34309;47.260;2.796;2023-09-12T12:33:38;26.90;35.40
48515;DHT22;34309;47.260;2.796;2023-09-12T12:36:15;26.90;35.30
48515;DHT22;34309;47.260;2.796;2023-09-12T12:38:50;27.00;35.10
48515;DHT22;34309;47.260;2.796;2023-09-12T12:41:27;27.00;34.60
48515;DHT22;34309;47.260;2.796;2023-09-12T12:43:57;27.00;34.70
48515;DHT22;34309;47.260;2.796;2023-09-12T12:46:33;27.00;34.50
48515;DHT22;34309;47.260;2.796;2023-09-12T12:49:07;27.00;34.40
48515;DHT22;34309;47.260;2.796;2023-09-12T12:51:50;27.00;34.20
48515;DHT22;34309;47.260;2.796;2023-09-12T12:54:24;27.00;33.90
48515;DHT22;34309;47.260;2.796;2023-09-12T12:56:59;27.00;33.60
48515;DHT22;34309;47.260;2.796;2023-09-12T12:59:33;27.00;33.60
48515;DHT22;34309;47.260;2.796;2023-09-12T13:02:08;27.10;33.50
48515;DHT22;34309;47.260;2.796;2023-09-12T13:04:43;27.10;33.60
48515;DHT22;34309;47.260;2.796;2023-09-12T13:07:19;27.10;33.60
48515;DHT22;34309;47.260;2.796;2023-09-12T13:09:53;27.10;33.70
48515;DHT22;34309;47.260;2.796;2023-09-12T13:12:27;27.10;33.60
48515;DHT22;34309;47.260;2.796;2023-09-12T13:15:01;27.10;33.50
48515;DHT22;34309;47.260;2.796;2023-09-12T13:17:35;27.10;33.40
48515;DHT22;34309;47.260;2.796;2023-09-12T13:20:09;27.10;33.30
48515;DHT22;34309;47.260;2.796;2023-09-12T13:22:45;27.10;33.30
48515;DHT22;34309;47.260;2.796;2023-09-12T13:25:19;27.10;33.50
48515;DHT22;34309;47.260;2.796;2023-09-12T13:27:53;27.10;33.50
48515;DHT22;34309;47.260;2.796;2023-09-12T13:30:27;27.10;33.40
48515;DHT22;34309;47.260;2.796;2023-09-12T13:33:01;27.10;33.50
48515;DHT22;34309;47.260;2.796;2023-09-12T13:35:36;27.20;33.40
48515;DHT22;34309;47.260;2.796;2023-09-12T13:38:11;27.20;33.20
48515;DHT22;34309;47.260;2.796;2023-09-12T13:40:46;27.20;33.40
48515;DHT22;34309;47.260;2.796;2023-09-12T13:43:20;27.20;33.30
48515;DHT22;34309;47.260;2.796;2023-09-12T13:45:55;27.20;33.10
48515;DHT22;34309;47.260;2.796;2023-09-12T13:48:31;27.20;33.30
48515;DHT22;34309;47.260;2.796;2023-09-12T13:51:07;27.20;33.40
48515;DHT22;34309;47.260;2.796;2023-09-12T13:53:43;27.20;33.50
48515;DHT22;34309;47.260;2.796;2023-09-12T13:56:17;27.30;33.50
48515;DHT22;34309;47.260;2.796;2023-09-12T13:58:50;27.20;33.40
48515;DHT22;34309;47.260;2.796;2023-09-12T14:01:24;27.20;33.50
48515;DHT22;34309;47.260;2.796;2023-09-12T14:03:58;27.30;33.50
48515;DHT22;34309;47.260;2.796;2023-09-12T14:06:33;27.30;33.70
48515;DHT22;34309;47.260;2.796;2023-09-12T14:09:09;27.30;33.70
48515;DHT22;34309;47.260;2.796;2023-09-12T14:11:45;27.30;33.70
48515;DHT22;34309;47.260;2.796;2023-09-12T14:14:20;27.30;33.80
48515;DHT22;34309;47.260;2.796;2023-09-12T14:16:54;27.30;33.50
48515;DHT22;34309;47.260;2.796;2023-09-12T14:19:29;27.30;33.50
48515;DHT22;34309;47.260;2.796;2023-09-12T14:22:04;27.30;33.50
48515;DHT22;34309;47.260;2.796;2023-09-12T14:24:39;27.30;33.40
48515;DHT22;34309;47.260;2.796;2023-09-12T14:27:13;27.30;33.40
48515;DHT22;34309;47.260;2.796;2023-09-12T14:29:47;27.30;33.60
48515;DHT22;34309;47.260;2.796;2023-09-12T14:32:23;27.30;33.70
48515;DHT22;34309;47.260;2.796;2023-09-12T14:34:57;27.30;33.70
48515;DHT22;34309;47.260;2.796;2023-09-12T14:37:31;27.30;33.80
48515;DHT22;34309;47.260;2.796;2023-09-12T14:40:08;27.40;34.20
48515;DHT22;34309;47.260;2.796;2023-09-12T14:42:45;27.40;34.30
48515;DHT22;34309;47.260;2.796;2023-09-12T14:45:19;27.40;34.30
48515;DHT22;34309;47.260;2.796;2023-09-12T14:47:53;27.40;34.30
48515;DHT22;34309;47.260;2.796;2023-09-12T14:50:28;27.40;34.30
48515;DHT22;34309;47.260;2.796;2023-09-12T14:53:03;27.40;34.30
48515;DHT22;34309;47.260;2.796;2023-09-12T14:55:39;27.40;34.30
48515;DHT22;34309;47.260;2.796;2023-09-12T14:58:13;27.40;34.20
48515;DHT22;34309;47.260;2.796;2023-09-12T15:00:47;27.40;33.90
48515;DHT22;34309;47.260;2.796;2023-09-12T15:03:21;27.40;33.90
48515;DHT22;34309;47.260;2.796;2023-09-12T15:05:54;27.40;33.90
48515;DHT22;34309;47.260;2.796;2023-09-12T15:08:28;27.40;33.80
48515;DHT22;34309;47.260;2.796;2023-09-12T15:11:03;27.40;33.90
48515;DHT22;34309;47.260;2.796;2023-09-12T15:13:38;27.40;33.80
48515;DHT22;34309;47.260;2.796;2023-09-12T15:16:12;27.40;34.30
48515;DHT22;34309;47.260;2.796;2023-09-12T15:18:45;27.50;34.30
48515;DHT22;34309;47.260;2.796;2023-09-12T15:21:19;27.50;34.40
48515;DHT22;34309;47.260;2.796;2023-09-12T15:23:53;27.50;34.20
48515;DHT22;34309;47.260;2.796;2023-09-12T15:26:28;27.50;34.10
48515;DHT22;34309;47.260;2.796;2023-09-12T15:29:02;27.50;34.10
48515;DHT22;34309;47.260;2.796;2023-09-12T15:31:36;27.50;34.00
48515;DHT22;34309;47.260;2.796;2023-09-12T15:34:10;27.50;34.10
48515;DHT22;34309;47.260;2.796;2023-09-12T15:36:47;27.50;33.90
48515;DHT22;34309;47.260;2.796;2023-09-12T15:39:21;27.60;34.10
48515;DHT22;34309;47.260;2.796;2023-09-12T15:41:57;27.60;33.80
48515;DHT22;34309;47.260;2.796;2023-09-12T15:44:31;27.60;33.70
48515;DHT22;34309;47.260;2.796;2023-09-12T15:47:07;27.60;33.70
48515;DHT22;34309;47.260;2.796;2023-09-12T15:49:42;27.60;33.80
48515;DHT22;34309;47.260;2.796;2023-09-12T15:52:16;27.60;33.60
48515;DHT22;34309;47.260;2.796;2023-09-12T15:54:50;27.60;33.50
48515;DHT22;34309;47.260;2.796;2023-09-12T15:57:27;27.60;33.30
48515;DHT22;34309;47.260;2.796;2023-09-12T16:00:01;27.60;33.70
48515;DHT22;34309;47.260;2.796;2023-09-12T16:02:39;27.60;33.50
48515;DHT22;34309;47.260;2.796;2023-09-12T16:05:13;27.60;33.40
48515;DHT22;34309;47.260;2.796;2023-09-12T16:07:47;27.60;33.40
48515;DHT22;34309;47.260;2.796;2023-09-12T16:10:23;27.70;33.20
48515;DHT22;34309;47.260;2.796;2023-09-12T16:13:01;27.70;33.30
48515;DHT22;34309;47.260;2.796;2023-09-12T16:15:35;27.70;33.20
48515;DHT22;34309;47.260;2.796;2023-09-12T16:18:09;27.70;32.90
48515;DHT22;34309;47.260;2.796;2023-09-12T16:20:43;27.70;33.10
48515;DHT22;34309;47.260;2.796;2023-09-12T16:23:17;27.80;33.00